createdAt,value
2022-09-24T00:00:49.881Z,95556.08
2022-09-24T00:06:28.575Z,95551.03
2022-09-24T00:12:07.376Z,95543.33
2022-09-24T00:14:56.250Z,95545.22
2022-09-24T00:20:31.791Z,95540.59
2022-09-24T00:26:28.185Z,95530.48
2022-09-24T00:29:18.815Z,95531.23
2022-09-24T00:34:55.801Z,95527.20
2022-09-24T00:37:44.767Z,95523.02
2022-09-24T00:40:36.876Z,95537.86
2022-09-24T00:46:19.309Z,95535.13
2022-09-24T00:49:10.598Z,95545.25
2022-09-24T00:52:00.113Z,95545.75
2022-09-24T00:54:51.538Z,95542.21
2022-09-24T01:00:28.010Z,95542.64
2022-09-24T01:03:18.623Z,95540.89
2022-09-24T01:06:08.148Z,95544.30
2022-09-24T01:11:46.493Z,95553.45
2022-09-24T01:17:36.850Z,95542.83
2022-09-24T01:23:48.757Z,95521.18
2022-09-24T01:26:56.937Z,95522.45
2022-09-24T01:32:46.639Z,95516.56
2022-09-24T01:38:24.597Z,95510.16
2022-09-24T01:41:15.360Z,95510.06
2022-09-24T01:44:06.614Z,95506.75
2022-09-24T01:46:55.384Z,95501.14
2022-09-24T01:49:44.290Z,95505.24
2022-09-24T01:55:26.952Z,95513.48
2022-09-24T02:01:08.076Z,95521.94
2022-09-24T02:06:48.117Z,95516.78
2022-09-24T02:09:40.609Z,95517.16
2022-09-24T02:15:14.620Z,95489.87
2022-09-24T02:20:51.872Z,95476.34
2022-09-24T02:26:24.197Z,95464.30
2022-09-24T02:29:13.056Z,95461.52
2022-09-24T02:34:52.873Z,95461.19
2022-09-24T02:37:48.213Z,95459.61
2022-09-24T02:43:22.338Z,95447.02
2022-09-24T02:46:10.688Z,95447.66
2022-09-24T02:52:01.451Z,95444.08
2022-09-24T02:54:50.129Z,95441.25
2022-09-24T02:57:38.681Z,95437.67
2022-09-24T03:00:27.059Z,95420.81
2022-09-24T03:06:00.569Z,95425.03
2022-09-24T03:11:36.634Z,95432.80
2022-09-24T03:17:14.362Z,95435.27
2022-09-24T03:20:04.426Z,95437.37
2022-09-24T03:25:41.810Z,95439.25
2022-09-24T03:28:30.288Z,95443.89
2022-09-24T03:34:06.896Z,95452.48
2022-09-24T03:36:55.421Z,95459.64
2022-09-24T03:39:44.872Z,95455.54
2022-09-24T03:42:34.517Z,95446.92
2022-09-24T03:45:22.782Z,95445.34
2022-09-24T03:48:11.033Z,95449.27
2022-09-24T03:50:59.460Z,95448.08
2022-09-24T03:56:35.978Z,95447.86
2022-09-24T03:59:25.203Z,95441.71
2022-09-24T04:05:12.315Z,95452.38
2022-09-24T04:08:01.921Z,95455.15
2022-09-24T04:13:38.733Z,95440.21
2022-09-24T04:19:10.537Z,95446.92
2022-09-24T04:21:58.993Z,95448.80
2022-09-24T04:27:35.064Z,95441.77
2022-09-24T04:33:24.254Z,95449.23
2022-09-24T04:38:59.106Z,95457.84
2022-09-24T04:44:34.500Z,95459.51
2022-09-24T04:50:07.819Z,95463.19
2022-09-24T04:55:49.295Z,95469.69
2022-09-24T05:01:23.847Z,95473.38
2022-09-24T05:06:54.466Z,95466.18
2022-09-24T05:12:35.340Z,95466.31
2022-09-24T05:18:02.991Z,95472.89
2022-09-24T05:23:37.040Z,95471.98
2022-09-24T05:26:43.650Z,95464.06
2022-09-24T05:32:21.840Z,95475.64
2022-09-24T05:37:58.451Z,95480.11
2022-09-24T05:43:43.726Z,95485.89
2022-09-24T05:46:32.953Z,95488.04
2022-09-24T05:52:05.725Z,95486.94
2022-09-24T05:57:48.064Z,95488.52
2022-09-24T06:03:28.183Z,95491.53
2022-09-24T06:09:10.152Z,95496.48
2022-09-24T06:14:45.661Z,95480.11
2022-09-24T06:20:43.096Z,95488.63
2022-09-24T06:23:31.520Z,95492.29
2022-09-24T06:29:07.268Z,95487.69
2022-09-24T06:34:42.552Z,95494.14
2022-09-24T06:37:30.945Z,95494.30
2022-09-24T06:40:19.243Z,95491.78
2022-09-24T06:43:08.354Z,95492.24
2022-09-24T06:45:58.104Z,95504.95
2022-09-24T06:51:33.338Z,95499.93
2022-09-24T06:57:09.902Z,95506.94
2022-09-24T07:08:33.408Z,95499.09
2022-09-24T07:14:23.720Z,95505.31
2022-09-24T07:20:14.544Z,95506.20
2022-09-24T07:23:02.568Z,95502.13
2022-09-24T07:25:51.745Z,95498.45
2022-09-24T07:28:40.947Z,95508.62
2022-09-24T07:34:14.803Z,95512.97
2022-09-24T07:39:54.831Z,95516.34
2022-09-24T07:42:49.644Z,95518.09
2022-09-24T07:48:28.883Z,95517.56
2022-09-24T07:51:22.833Z,95515.34
2022-09-24T07:56:56.810Z,95526.41
2022-09-24T07:59:45.463Z,95524.02
2022-09-24T08:02:34.020Z,95530.18
2022-09-24T08:05:23.285Z,95531.30
2022-09-24T08:10:55.246Z,95530.45
2022-09-24T08:13:43.673Z,95531.98
2022-09-24T08:16:31.925Z,95529.50
2022-09-24T08:19:19.989Z,95534.44
2022-09-24T08:22:12.016Z,95537.17
2022-09-24T08:27:50.249Z,95523.52
2022-09-24T08:33:27.118Z,95532.02
2022-09-24T08:36:15.331Z,95532.75
2022-09-24T08:42:00.787Z,95547.57
2022-09-24T08:47:45.554Z,95533.59
2022-09-24T08:50:35.312Z,95541.98
2022-09-24T08:56:16.250Z,95536.13
2022-09-24T09:04:54.250Z,95534.33
2022-09-24T09:10:36.677Z,95523.42
2022-09-24T09:16:18.886Z,95527.31
2022-09-24T09:21:59.161Z,95535.05
2022-09-24T09:24:49.843Z,95535.05
2022-09-24T09:27:38.997Z,95536.29
2022-09-24T09:30:28.857Z,95535.05
2022-09-24T09:33:24.678Z,95536.20
2022-09-24T09:41:54.886Z,95531.72
2022-09-24T09:47:38.235Z,95537.70
2022-09-24T09:53:24.298Z,95532.63
2022-09-24T09:59:08.484Z,95539.58
2022-09-24T10:04:45.777Z,95545.25
2022-09-24T10:10:24.148Z,95537.63
2022-09-24T10:16:00.827Z,95535.64
2022-09-24T10:21:37.744Z,95537.47
2022-09-24T10:27:24.450Z,95536.45
2022-09-24T10:33:04.538Z,95541.51
2022-09-24T10:38:38.783Z,95538.80
2022-09-24T10:44:16.099Z,95526.94
2022-09-24T10:50:15.943Z,95532.75
2022-09-24T10:55:59.486Z,95526.84
2022-09-24T11:01:52.855Z,95530.03
2022-09-24T11:11:16.551Z,95527.44
2022-09-24T11:20:33.961Z,95521.75
2022-09-24T11:26:32.485Z,95518.86
2022-09-24T11:29:37.611Z,95516.02
2022-09-24T11:35:24.076Z,95512.03
2022-09-24T11:41:21.273Z,95510.24
2022-09-24T11:47:24.734Z,95499.95
2022-09-24T11:55:59.620Z,95496.85
2022-09-24T11:58:51.427Z,95488.42
2022-09-24T12:04:30.920Z,95483.56
2022-09-24T12:07:23.826Z,95484.44
2022-09-24T12:13:18.039Z,95473.42
2022-09-24T12:18:57.895Z,95465.00
2022-09-24T12:24:38.475Z,95476.09
2022-09-24T12:30:42.436Z,95468.33
2022-09-24T12:36:38.800Z,95468.90
2022-09-24T12:39:29.619Z,95472.63
2022-09-24T12:42:20.921Z,95474.20
2022-09-24T12:47:59.765Z,95458.91
2022-09-24T12:53:43.848Z,95463.80
2022-09-24T12:59:29.511Z,95455.61
2022-09-24T13:02:22.022Z,95451.27
2022-09-24T13:05:21.307Z,95455.61
2022-09-24T13:08:27.145Z,95453.48
2022-09-24T13:17:08.425Z,95447.77
2022-09-24T13:25:25.026Z,95435.44
2022-09-24T13:31:15.806Z,95435.25
2022-09-24T13:36:58.170Z,95440.33
2022-09-24T13:39:50.300Z,95440.91
2022-09-24T13:48:14.271Z,95423.84
2022-09-24T13:53:48.162Z,95426.81
2022-09-24T14:01:57.082Z,95427.78
2022-09-24T14:07:32.552Z,95422.83
2022-09-24T14:13:19.167Z,95419.72
2022-09-24T14:19:06.385Z,95425.44
2022-09-24T14:24:50.135Z,95410.08
2022-09-24T14:33:16.790Z,95407.80
2022-09-24T14:36:05.750Z,95411.08
2022-09-24T14:38:57.291Z,95403.44
2022-09-24T14:44:37.662Z,95393.17
2022-09-24T14:50:29.416Z,95398.72
2022-09-24T14:53:23.598Z,95392.47
2022-09-24T15:02:17.899Z,95384.87
2022-09-24T15:07:47.869Z,95378.80
2022-09-24T15:10:36.447Z,95371.76
2022-09-24T15:13:27.075Z,95378.44
2022-09-24T15:16:22.087Z,95389.01
2022-09-24T15:22:02.141Z,95392.55
2022-09-24T15:27:39.995Z,95391.55
2022-09-24T15:33:12.922Z,95391.02
2022-09-24T15:36:01.670Z,95399.40
2022-09-24T15:41:32.842Z,95397.80
2022-09-24T15:44:26.240Z,95395.21
2022-09-24T15:47:14.352Z,95399.63
2022-09-24T15:52:53.176Z,95399.72
2022-09-24T15:55:41.814Z,95395.84
2022-09-24T15:58:30.317Z,95403.95
2022-09-24T16:01:19.705Z,95392.55
2022-09-24T16:04:08.788Z,95401.00
2022-09-24T16:09:57.494Z,95389.89
2022-09-24T16:15:33.666Z,95393.29
2022-09-24T16:21:12.420Z,95395.19
2022-09-24T16:24:01.214Z,95396.16
2022-09-24T16:29:38.855Z,95396.29
2022-09-24T16:32:27.196Z,95395.42
2022-09-24T16:35:15.333Z,95395.04
2022-09-24T16:38:04.076Z,95400.44
2022-09-24T16:41:00.163Z,95402.31
2022-09-24T16:46:36.633Z,95408.16
2022-09-24T16:52:11.948Z,95405.11
2022-09-24T16:57:52.479Z,95413.70
2022-09-24T17:00:45.724Z,95404.59
2022-09-24T17:03:35.993Z,95402.52
2022-09-24T17:06:26.140Z,95401.33
2022-09-24T17:09:32.786Z,95401.67
2022-09-24T17:15:10.710Z,95401.15
2022-09-24T17:20:50.428Z,95395.84
2022-09-24T17:23:38.518Z,95397.85
2022-09-24T17:26:27.704Z,95401.95
2022-09-24T17:29:26.476Z,95404.05
2022-09-24T17:32:17.357Z,95411.67
2022-09-24T17:38:09.393Z,95410.27
2022-09-24T17:43:47.258Z,95412.42
2022-09-24T17:46:38.731Z,95413.73
2022-09-24T17:49:27.062Z,95410.00
2022-09-24T17:52:16.559Z,95417.88
2022-09-24T17:57:58.238Z,95421.05
2022-09-24T18:00:46.825Z,95419.52
2022-09-24T18:03:36.566Z,95420.08
2022-09-24T18:09:13.827Z,95415.48
2022-09-24T18:15:07.404Z,95410.71
2022-09-24T18:20:51.691Z,95411.48
2022-09-24T18:23:40.348Z,95410.84
2022-09-24T18:26:32.282Z,95417.11
2022-09-24T18:29:26.458Z,95414.73
2022-09-24T18:32:19.877Z,95424.60
2022-09-24T18:35:13.610Z,95425.11
2022-09-24T18:40:57.340Z,95439.72
2022-09-24T18:46:33.757Z,95450.59
2022-09-24T18:49:24.245Z,95453.88
2022-09-24T18:52:13.544Z,95451.57
2022-09-24T18:57:52.917Z,95449.73
2022-09-24T19:00:51.211Z,95444.27
2022-09-24T19:03:40.445Z,95441.88
2022-09-24T19:06:28.776Z,95450.27
2022-09-24T19:12:25.108Z,95438.64
2022-09-24T19:18:00.238Z,95446.33
2022-09-24T19:20:50.919Z,95441.94
2022-09-24T19:23:56.179Z,95439.64
2022-09-24T19:29:38.031Z,95427.85
2022-09-24T19:35:18.281Z,95428.77
2022-09-24T19:41:03.947Z,95428.45
2022-09-24T19:46:40.873Z,95434.63
2022-09-24T19:49:30.723Z,95438.21
2022-09-24T19:52:20.614Z,95444.97
2022-09-24T19:57:59.122Z,95446.73
2022-09-24T20:04:06.315Z,95440.14
2022-09-24T20:09:44.416Z,95438.88
2022-09-24T20:12:40.827Z,95443.24
2022-09-24T20:18:21.797Z,95440.52
2022-09-24T20:24:06.317Z,95438.44
2022-09-24T20:30:00.075Z,95445.25
2022-09-24T20:35:42.663Z,95450.44
2022-09-24T20:38:37.850Z,95452.53
2022-09-24T20:50:37.953Z,95440.48
2022-09-24T20:53:31.497Z,95435.46
2022-09-24T20:56:20.807Z,95439.12
2022-09-24T21:02:16.680Z,95437.91
2022-09-24T21:08:05.752Z,95428.95
2022-09-24T21:13:54.618Z,95426.56
2022-09-24T21:19:41.787Z,95421.66
2022-09-24T21:22:35.569Z,95425.52
2022-09-24T21:25:53.514Z,95426.59
2022-09-24T21:31:28.663Z,95438.33
2022-09-24T21:34:36.084Z,95434.83
2022-09-24T21:37:25.491Z,95430.09
2022-09-24T21:40:14.712Z,95420.56
2022-09-24T21:43:04.520Z,95425.27
2022-09-24T21:46:03.931Z,95431.38
2022-09-24T21:48:52.274Z,95425.23
2022-09-24T21:54:26.928Z,95427.08
2022-09-24T21:57:27.248Z,95432.49
2022-09-24T22:00:24.279Z,95430.36
2022-09-24T22:08:51.276Z,95426.13
2022-09-24T22:14:26.924Z,95422.26
2022-09-24T22:20:02.962Z,95435.80
2022-09-24T22:25:40.498Z,95427.27
2022-09-24T22:31:16.174Z,95436.34
2022-09-24T22:36:52.493Z,95425.23
2022-09-24T22:39:41.774Z,95425.27
2022-09-24T22:45:14.954Z,95424.60
2022-09-24T22:50:51.210Z,95427.15
2022-09-24T22:53:40.446Z,95429.66
2022-09-24T22:59:11.170Z,95422.51
2022-09-24T23:01:59.652Z,95422.11
2022-09-24T23:07:35.640Z,95410.20
2022-09-24T23:13:05.428Z,95405.30
2022-09-24T23:18:32.256Z,95404.16
2022-09-24T23:21:22.303Z,95392.98
2022-09-24T23:26:55.388Z,95391.52
2022-09-24T23:32:31.464Z,95389.00
2022-09-24T23:35:21.178Z,95386.06
2022-09-24T23:40:57.209Z,95390.77
2022-09-24T23:43:46.341Z,95392.34
2022-09-24T23:49:21.107Z,95387.78
2022-09-24T23:52:10.849Z,95393.31
2022-09-24T23:54:58.995Z,95391.97
